createdAt,value
2022-09-23T00:01:15.180Z,10.48
2022-09-23T00:03:45.520Z,12.02
2022-09-23T00:06:18.014Z,13.75
2022-09-23T00:08:45.366Z,11.98
2022-09-23T00:11:14.978Z,10.45
2022-09-23T00:13:43.725Z,9.85
2022-09-23T00:16:14.817Z,11.65
2022-09-23T00:18:42.253Z,11.00
2022-09-23T00:21:14.635Z,11.82
2022-09-23T00:23:42.926Z,13.18
2022-09-23T00:26:13.583Z,10.15
2022-09-23T00:28:40.747Z,13.20
2022-09-23T00:31:10.946Z,10.18
2022-09-23T00:33:38.099Z,10.02
2022-09-23T00:36:07.481Z,9.18
2022-09-23T00:38:34.590Z,12.20
2022-09-23T00:41:02.892Z,12.15
2022-09-23T00:43:46.245Z,10.82
2022-09-23T00:46:21.822Z,10.10
2022-09-23T00:48:54.570Z,10.88
2022-09-23T00:51:24.936Z,9.63
2022-09-23T00:53:52.798Z,16.35
2022-09-23T00:56:23.015Z,8.05
2022-09-23T00:58:51.033Z,8.32
2022-09-23T01:01:19.804Z,11.30
2022-09-23T01:03:47.386Z,9.40
2022-09-23T01:06:14.392Z,11.52
2022-09-23T01:08:44.399Z,11.63
2022-09-23T01:11:49.527Z,12.88
2022-09-23T01:14:35.576Z,9.38
2022-09-23T01:17:05.254Z,9.50
2022-09-23T01:19:59.548Z,13.05
2022-09-23T01:22:49.775Z,9.55
2022-09-23T01:25:31.955Z,9.63
2022-09-23T01:28:19.076Z,9.98
2022-09-23T01:31:17.688Z,9.55
2022-09-23T01:34:03.914Z,10.65
2022-09-23T01:36:40.245Z,12.65
2022-09-23T01:39:17.288Z,13.27
2022-09-23T01:42:09.611Z,10.65
2022-09-23T01:44:43.089Z,8.50
2022-09-23T01:47:27.807Z,11.48
2022-09-23T01:50:36.480Z,9.65
2022-09-23T01:53:10.901Z,10.63
2022-09-23T01:55:42.443Z,11.02
2022-09-23T01:58:35.661Z,9.15
2022-09-23T02:01:07.100Z,8.73
2022-09-23T02:03:42.203Z,12.35
2022-09-23T02:06:15.010Z,13.80
2022-09-23T02:08:47.277Z,10.50
2022-09-23T02:11:16.223Z,12.10
2022-09-23T02:13:48.811Z,8.48
2022-09-23T02:16:44.845Z,11.23
2022-09-23T02:19:27.239Z,11.35
2022-09-23T02:22:08.373Z,9.38
2022-09-23T02:24:38.731Z,9.40
2022-09-23T02:27:08.200Z,12.85
2022-09-23T02:29:54.024Z,10.23
2022-09-23T02:32:26.310Z,10.00
2022-09-23T02:35:18.154Z,8.85
2022-09-23T02:37:54.286Z,10.30
2022-09-23T02:40:46.882Z,8.48
2022-09-23T02:43:23.683Z,10.15
2022-09-23T02:45:50.548Z,8.73
2022-09-23T02:48:28.965Z,10.82
2022-09-23T02:50:55.756Z,9.50
2022-09-23T02:53:24.392Z,9.25
2022-09-23T02:55:51.217Z,7.85
2022-09-23T02:58:18.195Z,9.10
2022-09-23T03:01:33.849Z,11.05
2022-09-23T03:04:05.076Z,9.10
2022-09-23T03:06:48.139Z,9.20
2022-09-23T03:09:55.711Z,9.73
2022-09-23T03:12:52.905Z,8.23
2022-09-23T03:15:26.337Z,9.07
2022-09-23T03:18:14.823Z,9.82
2022-09-23T03:21:03.134Z,16.55
2022-09-23T03:23:37.142Z,10.43
2022-09-23T03:28:43.687Z,11.10
2022-09-23T03:31:13.094Z,8.73
2022-09-23T03:33:46.967Z,8.25
2022-09-23T03:36:35.023Z,6.57
2022-09-23T03:39:07.045Z,7.82
2022-09-23T03:41:43.804Z,8.65
2022-09-23T03:44:11.972Z,10.05
2022-09-23T03:46:38.962Z,8.20
2022-09-23T03:49:15.767Z,8.68
2022-09-23T03:51:44.795Z,12.75
2022-09-23T03:54:11.813Z,10.65
2022-09-23T03:56:38.567Z,12.93
2022-09-23T03:59:05.497Z,8.80
2022-09-23T04:01:32.473Z,11.35
2022-09-23T04:04:00.102Z,9.90
2022-09-23T04:06:27.025Z,6.95
2022-09-23T04:08:54.044Z,10.43
2022-09-23T04:11:20.815Z,12.40
2022-09-23T04:13:47.716Z,7.70
2022-09-23T04:16:14.645Z,8.05
2022-09-23T04:18:44.751Z,10.02
2022-09-23T04:21:11.813Z,9.35
2022-09-23T04:23:38.587Z,10.75
2022-09-23T04:26:06.038Z,7.93
2022-09-23T04:28:33.007Z,11.18
2022-09-23T04:31:04.575Z,10.75
2022-09-23T04:33:31.828Z,10.02
2022-09-23T04:35:59.194Z,9.45
2022-09-23T04:38:26.618Z,12.40
2022-09-23T04:40:53.407Z,10.77
2022-09-23T04:43:22.893Z,9.80
2022-09-23T04:46:07.280Z,10.15
2022-09-23T04:48:36.659Z,13.63
2022-09-23T04:51:09.652Z,12.50
2022-09-23T04:53:39.376Z,8.57
2022-09-23T04:56:17.717Z,10.63
2022-09-23T04:58:46.100Z,11.60
2022-09-23T05:01:26.755Z,10.90
2022-09-23T05:04:02.393Z,9.75
2022-09-23T05:06:37.297Z,11.45
2022-09-23T05:09:07.216Z,9.90
2022-09-23T05:11:34.617Z,11.35
2022-09-23T05:14:01.826Z,12.88
2022-09-23T05:16:29.466Z,8.82
2022-09-23T05:18:56.292Z,13.88
2022-09-23T05:21:25.231Z,17.70
2022-09-23T05:23:55.353Z,17.17
2022-09-23T05:26:25.550Z,23.38
2022-09-23T05:28:53.906Z,23.70
2022-09-23T05:31:23.457Z,20.70
2022-09-23T05:33:57.379Z,20.70
2022-09-23T05:36:26.496Z,14.98
2022-09-23T05:38:54.662Z,14.68
2022-09-23T05:41:25.297Z,10.85
2022-09-23T05:43:53.853Z,15.43
2022-09-23T05:46:27.940Z,14.00
2022-09-23T05:49:01.138Z,17.95
2022-09-23T05:51:31.150Z,12.32
2022-09-23T05:53:59.752Z,14.98
2022-09-23T05:56:28.369Z,12.05
2022-09-23T05:58:57.403Z,13.57
2022-09-23T06:01:31.372Z,11.18
2022-09-23T06:06:40.396Z,12.48
2022-09-23T06:09:11.366Z,10.63
2022-09-23T06:11:38.320Z,14.68
2022-09-23T06:14:05.796Z,17.65
2022-09-23T06:16:34.863Z,12.48
2022-09-23T06:19:06.159Z,10.98
2022-09-23T06:21:37.528Z,11.43
2022-09-23T06:24:07.026Z,13.02
2022-09-23T06:26:35.329Z,14.98
2022-09-23T06:29:03.432Z,16.20
2022-09-23T06:31:30.574Z,10.43
2022-09-23T06:34:12.527Z,10.45
2022-09-23T06:36:46.187Z,9.75
2022-09-23T06:39:15.206Z,10.02
2022-09-23T06:41:42.349Z,11.07
2022-09-23T06:44:09.133Z,13.32
2022-09-23T06:46:36.960Z,10.82
2022-09-23T06:49:03.999Z,11.88
2022-09-23T06:51:30.806Z,12.82
2022-09-23T06:53:57.534Z,12.27
2022-09-23T06:56:24.780Z,11.13
2022-09-23T06:58:52.691Z,12.18
2022-09-23T07:01:19.917Z,13.32
2022-09-23T07:03:48.495Z,11.57
2022-09-23T07:06:17.144Z,11.27
2022-09-23T07:08:47.066Z,10.80
2022-09-23T07:11:15.619Z,8.90
2022-09-23T07:13:42.884Z,10.70
2022-09-23T07:16:11.478Z,10.23
2022-09-23T07:18:39.142Z,11.60
2022-09-23T07:21:17.371Z,7.65
2022-09-23T07:23:46.599Z,7.05
2022-09-23T07:26:15.068Z,7.95
2022-09-23T07:28:41.915Z,7.25
2022-09-23T07:31:15.818Z,10.00
2022-09-23T07:33:44.272Z,9.60
2022-09-23T07:36:14.369Z,8.43
2022-09-23T07:38:45.145Z,8.70
2022-09-23T07:41:15.756Z,8.32
2022-09-23T07:43:45.263Z,7.20
2022-09-23T07:46:16.310Z,7.57
2022-09-23T07:48:44.516Z,6.68
2022-09-23T07:51:19.129Z,6.22
2022-09-23T07:53:51.238Z,7.40
2022-09-23T07:56:19.433Z,6.57
2022-09-23T07:58:59.977Z,7.55
2022-09-23T08:01:29.825Z,8.20
2022-09-23T08:03:58.592Z,9.43
2022-09-23T08:06:25.871Z,6.15
2022-09-23T08:08:53.608Z,6.05
2022-09-23T08:11:20.503Z,6.25
2022-09-23T08:13:47.779Z,6.97
2022-09-23T08:16:14.813Z,6.35
2022-09-23T08:18:45.243Z,9.52
2022-09-23T08:21:12.753Z,5.90
2022-09-23T08:23:39.852Z,6.03
2022-09-23T08:26:10.336Z,9.68
2022-09-23T08:28:43.535Z,8.77
2022-09-23T08:31:10.284Z,8.30
2022-09-23T08:33:37.245Z,5.35
2022-09-23T08:36:04.482Z,4.78
2022-09-23T08:38:31.776Z,7.03
2022-09-23T08:41:23.028Z,5.07
2022-09-23T08:43:54.198Z,6.30
2022-09-23T08:46:40.507Z,6.25
2022-09-23T08:49:12.370Z,6.03
2022-09-23T08:51:46.916Z,5.47
2022-09-23T08:54:17.766Z,6.57
2022-09-23T08:56:48.948Z,7.20
2022-09-23T08:59:36.745Z,6.07
2022-09-23T09:02:16.129Z,6.53
2022-09-23T09:04:45.697Z,4.35
2022-09-23T09:07:38.923Z,4.57
2022-09-23T09:10:25.490Z,5.32
2022-09-23T09:13:20.672Z,4.80
2022-09-23T09:16:11.500Z,4.97
2022-09-23T09:18:49.786Z,4.43
2022-09-23T09:21:16.974Z,4.07
2022-09-23T09:23:50.167Z,4.47
2022-09-23T09:26:22.655Z,7.38
2022-09-23T09:29:02.562Z,3.88
2022-09-23T09:31:49.114Z,5.30
2022-09-23T09:34:44.059Z,4.70
2022-09-23T09:37:19.451Z,8.48
2022-09-23T09:39:46.210Z,6.18
2022-09-23T09:42:21.048Z,6.15
2022-09-23T09:45:01.818Z,4.22
2022-09-23T09:47:47.948Z,3.97
2022-09-23T09:50:21.677Z,5.22
2022-09-23T09:52:51.266Z,4.03
2022-09-23T09:55:35.578Z,5.75
2022-09-23T09:58:05.207Z,5.68
2022-09-23T10:00:40.895Z,5.25
2022-09-23T10:03:13.798Z,6.05
2022-09-23T10:05:46.835Z,6.63
2022-09-23T10:08:23.102Z,7.25
2022-09-23T10:10:59.632Z,4.60
2022-09-23T10:13:29.412Z,5.70
2022-09-23T10:16:03.921Z,6.60
2022-09-23T10:18:47.327Z,5.40
2022-09-23T10:21:17.202Z,4.97
2022-09-23T10:23:46.596Z,5.10
2022-09-23T10:26:17.368Z,5.40
2022-09-23T10:28:50.518Z,5.00
2022-09-23T10:33:59.676Z,5.15
2022-09-23T10:36:31.560Z,4.55
2022-09-23T10:39:23.069Z,6.15
2022-09-23T10:42:37.721Z,4.70
2022-09-23T10:45:52.207Z,4.30
2022-09-23T10:48:21.868Z,4.18
2022-09-23T10:50:51.710Z,4.55
2022-09-23T10:53:42.459Z,3.55
2022-09-23T10:56:34.520Z,5.10
2022-09-23T10:59:14.191Z,12.93
2022-09-23T11:01:49.710Z,5.90
2022-09-23T11:04:24.136Z,4.65
2022-09-23T11:07:20.719Z,4.55
2022-09-23T11:09:58.683Z,5.50
2022-09-23T11:12:42.637Z,5.60
2022-09-23T11:18:17.081Z,4.05
2022-09-23T11:21:08.307Z,3.72
2022-09-23T11:24:17.774Z,5.18
2022-09-23T11:26:47.117Z,5.15
2022-09-23T11:29:53.794Z,8.95
2022-09-23T11:32:29.392Z,4.90
2022-09-23T11:35:19.502Z,6.57
2022-09-23T11:37:51.521Z,5.75
2022-09-23T11:40:25.253Z,7.53
2022-09-23T11:45:42.507Z,5.25
2022-09-23T11:48:18.145Z,5.28
2022-09-23T11:50:54.040Z,6.85
2022-09-23T11:54:01.905Z,6.28
2022-09-23T11:56:36.770Z,4.22
2022-09-23T11:59:38.452Z,7.13
2022-09-23T12:02:20.379Z,4.60
2022-09-23T12:04:58.496Z,4.70
2022-09-23T12:07:46.711Z,4.13
2022-09-23T12:10:15.695Z,4.10
2022-09-23T12:13:04.898Z,3.45
2022-09-23T12:15:50.559Z,4.43
2022-09-23T12:18:56.350Z,3.25
2022-09-23T12:21:51.702Z,4.07
2022-09-23T12:24:43.187Z,3.88
2022-09-23T12:27:22.999Z,3.55
2022-09-23T12:29:56.666Z,3.10
2022-09-23T12:32:24.751Z,3.95
2022-09-23T12:34:53.468Z,2.90
2022-09-23T12:37:34.197Z,4.60
2022-09-23T12:40:22.780Z,3.05
2022-09-23T12:42:50.675Z,6.22
2022-09-23T12:45:28.148Z,3.58
2022-09-23T12:47:54.927Z,4.38
2022-09-23T12:50:51.061Z,4.82
2022-09-23T12:54:02.047Z,4.35
2022-09-23T12:56:37.989Z,4.13
2022-09-23T12:59:33.904Z,4.32
2022-09-23T13:02:26.899Z,3.17
2022-09-23T13:05:17.693Z,4.07
2022-09-23T13:07:48.737Z,4.40
2022-09-23T13:10:32.836Z,4.88
2022-09-23T13:13:02.329Z,4.38
2022-09-23T13:15:34.030Z,4.72
2022-09-23T13:18:19.082Z,3.00
2022-09-23T13:20:50.647Z,3.03
2022-09-23T13:23:22.340Z,3.72
2022-09-23T13:25:51.553Z,3.40
2022-09-23T13:28:27.273Z,2.03
2022-09-23T13:30:54.389Z,5.20
2022-09-23T13:33:29.728Z,4.85
2022-09-23T13:36:02.361Z,3.60
2022-09-23T13:38:31.994Z,3.90
2022-09-23T13:41:07.606Z,3.08
2022-09-23T13:43:41.570Z,3.70
2022-09-23T13:46:20.234Z,3.33
2022-09-23T13:48:51.091Z,2.50
2022-09-23T13:51:38.012Z,3.65
2022-09-23T13:54:30.988Z,3.35
2022-09-23T13:56:58.378Z,4.47
2022-09-23T13:59:36.316Z,4.03
2022-09-23T14:02:15.256Z,3.80
2022-09-23T14:04:43.212Z,6.63
2022-09-23T14:07:14.454Z,3.55
2022-09-23T14:09:44.274Z,3.97
2022-09-23T14:12:11.829Z,2.85
2022-09-23T14:14:42.563Z,3.22
2022-09-23T14:17:16.808Z,5.40
2022-09-23T14:19:44.021Z,3.25
2022-09-23T14:22:28.162Z,5.05
2022-09-23T14:24:56.567Z,3.97
2022-09-23T14:27:33.924Z,5.20
2022-09-23T14:30:02.864Z,3.20
2022-09-23T14:32:30.875Z,4.90
2022-09-23T14:35:00.841Z,5.38
2022-09-23T14:37:51.370Z,3.92
2022-09-23T14:40:22.804Z,3.75
2022-09-23T14:42:57.210Z,3.20
2022-09-23T14:45:28.979Z,5.78
2022-09-23T14:48:12.783Z,3.85
2022-09-23T14:50:48.554Z,20.08
2022-09-23T14:53:24.186Z,4.55
2022-09-23T14:56:07.218Z,5.22
2022-09-23T14:58:54.222Z,4.00
2022-09-23T15:01:33.324Z,4.13
2022-09-23T15:04:23.375Z,3.60
2022-09-23T15:07:00.984Z,3.60
2022-09-23T15:09:33.435Z,3.80
2022-09-23T15:12:21.884Z,4.37
2022-09-23T15:14:52.633Z,2.75
2022-09-23T15:17:35.678Z,3.47
2022-09-23T15:20:06.907Z,5.18
2022-09-23T15:22:43.554Z,5.38
2022-09-23T15:25:31.991Z,3.38
2022-09-23T15:28:10.576Z,4.20
2022-09-23T15:30:39.082Z,5.97
2022-09-23T15:33:06.462Z,4.00
2022-09-23T15:35:33.409Z,3.22
2022-09-23T15:38:02.179Z,3.63
2022-09-23T15:40:35.035Z,7.57
2022-09-23T15:43:21.213Z,3.40
2022-09-23T15:45:56.360Z,3.58
2022-09-23T15:48:27.952Z,4.25
2022-09-23T15:50:54.775Z,4.60
2022-09-23T15:53:24.289Z,3.10
2022-09-23T15:55:51.622Z,4.30
2022-09-23T15:58:20.111Z,6.32
2022-09-23T16:00:55.673Z,3.45
2022-09-23T16:03:28.993Z,5.30
2022-09-23T16:06:00.102Z,3.20
2022-09-23T16:08:28.339Z,3.38
2022-09-23T16:10:55.709Z,3.65
2022-09-23T16:13:23.033Z,3.88
2022-09-23T16:15:50.075Z,3.67
2022-09-23T16:18:17.013Z,3.03
2022-09-23T16:20:45.664Z,4.10
2022-09-23T16:23:43.519Z,5.63
2022-09-23T16:26:19.828Z,4.60
2022-09-23T16:28:48.522Z,5.00
2022-09-23T16:31:16.573Z,6.32
2022-09-23T16:33:47.887Z,8.80
2022-09-23T16:36:23.819Z,5.03
2022-09-23T16:38:50.901Z,7.88
2022-09-23T16:41:17.901Z,13.57
2022-09-23T16:43:44.662Z,10.55
2022-09-23T16:46:14.137Z,12.25
2022-09-23T16:48:42.141Z,7.00
2022-09-23T16:51:14.758Z,7.63
2022-09-23T16:53:42.750Z,13.52
2022-09-23T16:56:11.450Z,5.53
2022-09-23T16:58:39.294Z,9.10
2022-09-23T17:01:26.623Z,7.75
2022-09-23T17:03:53.408Z,7.93
2022-09-23T17:06:20.440Z,5.88
2022-09-23T17:08:51.072Z,6.78
2022-09-23T17:11:17.811Z,7.57
2022-09-23T17:13:45.068Z,5.65
2022-09-23T17:16:23.144Z,8.10
2022-09-23T17:18:50.154Z,9.30
2022-09-23T17:21:17.119Z,6.30
2022-09-23T17:23:43.899Z,7.38
2022-09-23T17:26:12.479Z,6.78
2022-09-23T17:28:39.480Z,12.32
2022-09-23T17:31:07.496Z,12.57
2022-09-23T17:33:38.806Z,23.00
2022-09-23T17:36:11.104Z,23.13
2022-09-23T17:38:41.565Z,24.20
2022-09-23T17:41:15.639Z,24.88
2022-09-23T17:43:48.335Z,30.33
2022-09-23T17:46:18.903Z,26.42
2022-09-23T17:48:54.108Z,30.83
2022-09-23T17:51:24.363Z,28.15
2022-09-23T17:53:51.676Z,32.00
2022-09-23T17:56:20.289Z,18.70
2022-09-23T17:58:48.691Z,23.33
2022-09-23T18:01:24.010Z,20.38
2022-09-23T18:03:59.261Z,21.63
2022-09-23T18:06:29.047Z,24.48
2022-09-23T18:08:58.600Z,19.52
2022-09-23T18:11:27.436Z,24.95
2022-09-23T18:13:54.728Z,27.13
2022-09-23T18:16:23.950Z,25.38
2022-09-23T18:18:52.376Z,35.28
2022-09-23T18:21:20.727Z,39.15
2022-09-23T18:23:47.901Z,34.13
2022-09-23T18:26:23.068Z,37.72
2022-09-23T18:28:52.777Z,33.47
2022-09-23T18:31:20.422Z,38.38
2022-09-23T18:33:52.023Z,34.75
2022-09-23T18:36:19.868Z,38.03
2022-09-23T18:38:47.772Z,36.22
2022-09-23T18:41:15.258Z,43.63
2022-09-23T18:43:47.616Z,38.25
2022-09-23T18:46:20.929Z,40.30
2022-09-23T18:49:06.746Z,40.03
2022-09-23T18:51:36.870Z,26.85
2022-09-23T18:54:06.668Z,28.80
2022-09-23T18:56:41.688Z,38.55
2022-09-23T18:59:20.550Z,30.67
2022-09-23T19:01:55.334Z,28.17
2022-09-23T19:04:24.831Z,27.60
2022-09-23T19:06:51.756Z,23.70
2022-09-23T19:09:19.027Z,32.90
2022-09-23T19:11:46.479Z,24.80
2022-09-23T19:14:13.709Z,31.17
2022-09-23T19:16:40.987Z,26.58
2022-09-23T19:19:08.401Z,32.13
2022-09-23T19:21:36.062Z,27.75
2022-09-23T19:24:06.101Z,29.13
2022-09-23T19:26:37.512Z,27.50
2022-09-23T19:29:06.020Z,27.73
2022-09-23T19:31:35.784Z,30.48
2022-09-23T19:34:10.688Z,35.10
2022-09-23T19:36:39.983Z,29.85
2022-09-23T19:39:12.232Z,28.77
2022-09-23T19:41:38.952Z,25.17
2022-09-23T19:44:07.315Z,24.08
2022-09-23T19:46:39.421Z,38.03
2022-09-23T19:49:07.497Z,30.80
2022-09-23T19:51:35.105Z,29.92
2022-09-23T19:54:03.374Z,22.58
2022-09-23T19:56:31.984Z,29.08
2022-09-23T19:59:00.216Z,21.55
2022-09-23T20:01:29.387Z,22.17
2022-09-23T20:03:56.401Z,18.92
2022-09-23T20:06:23.444Z,21.70
2022-09-23T20:08:50.419Z,20.15
2022-09-23T20:11:26.234Z,21.52
2022-09-23T20:14:02.224Z,16.45
2022-09-23T20:16:34.356Z,18.70
2022-09-23T20:19:02.863Z,17.40
2022-09-23T20:21:30.164Z,19.75
2022-09-23T20:23:57.853Z,19.75
2022-09-23T20:26:43.351Z,19.02
2022-09-23T20:29:11.156Z,19.65
2022-09-23T20:31:41.092Z,16.52
2022-09-23T20:34:10.303Z,23.08
2022-09-23T20:36:37.846Z,18.38
2022-09-23T20:39:09.113Z,20.05
2022-09-23T20:41:37.722Z,21.48
2022-09-23T20:44:15.220Z,16.05
2022-09-23T20:46:48.567Z,16.52
2022-09-23T20:49:17.190Z,19.05
2022-09-23T20:51:44.524Z,17.65
2022-09-23T20:54:12.265Z,14.27
2022-09-23T20:56:39.521Z,18.50
2022-09-23T20:59:06.449Z,15.60
2022-09-23T21:01:35.212Z,16.42
2022-09-23T21:04:04.937Z,14.30
2022-09-23T21:06:33.580Z,18.55
2022-09-23T21:09:00.867Z,14.85
2022-09-23T21:11:29.097Z,16.20
2022-09-23T21:13:56.543Z,15.75
2022-09-23T21:16:25.831Z,15.68
2022-09-23T21:18:53.079Z,14.32
2022-09-23T21:21:22.353Z,16.13
2022-09-23T21:23:50.605Z,15.82
2022-09-23T21:26:25.207Z,12.93
2022-09-23T21:28:58.126Z,15.02
2022-09-23T21:31:25.895Z,12.88
2022-09-23T21:34:13.426Z,14.15
2022-09-23T21:36:46.171Z,14.70
2022-09-23T21:39:12.976Z,18.83
2022-09-23T21:41:40.138Z,12.65
2022-09-23T21:44:07.949Z,14.40
2022-09-23T21:46:35.722Z,19.38
2022-09-23T21:49:03.741Z,15.10
2022-09-23T21:51:40.614Z,16.67
2022-09-23T21:54:15.653Z,14.43
2022-09-23T21:56:43.863Z,13.90
2022-09-23T21:59:10.811Z,13.23
2022-09-23T22:01:41.460Z,14.73
2022-09-23T22:04:15.396Z,15.07
2022-09-23T22:06:42.756Z,19.90
2022-09-23T22:09:13.468Z,14.02
2022-09-23T22:11:59.919Z,15.98
2022-09-23T22:14:27.306Z,17.75
2022-09-23T22:16:59.290Z,17.45
2022-09-23T22:19:28.582Z,14.48
2022-09-23T22:21:56.197Z,16.27
2022-09-23T22:24:23.309Z,18.73
2022-09-23T22:26:50.281Z,14.70
2022-09-23T22:29:35.964Z,15.95
2022-09-23T22:32:23.319Z,14.80
2022-09-23T22:34:51.906Z,15.98
2022-09-23T22:37:30.528Z,16.85
2022-09-23T22:39:57.541Z,17.48
2022-09-23T22:42:24.397Z,15.77
2022-09-23T22:44:51.729Z,16.90
2022-09-23T22:47:19.694Z,17.23
2022-09-23T22:49:47.088Z,17.73
2022-09-23T22:52:16.118Z,15.00
2022-09-23T22:54:43.367Z,17.02
2022-09-23T22:57:10.477Z,21.83
2022-09-23T22:59:37.680Z,17.25
2022-09-23T23:02:07.130Z,17.30
2022-09-23T23:04:33.993Z,23.38
2022-09-23T23:07:00.708Z,16.35
2022-09-23T23:09:27.708Z,20.40
2022-09-23T23:11:54.465Z,16.85
2022-09-23T23:14:21.415Z,23.73
2022-09-23T23:16:48.381Z,20.92
2022-09-23T23:19:17.337Z,21.15
2022-09-23T23:21:45.529Z,23.55
2022-09-23T23:24:21.551Z,21.70
2022-09-23T23:26:49.380Z,21.70
2022-09-23T23:29:17.852Z,19.88
2022-09-23T23:31:45.478Z,16.00
2022-09-23T23:34:14.809Z,20.65
2022-09-23T23:36:42.261Z,17.95
2022-09-23T23:39:09.889Z,17.13
2022-09-23T23:41:37.902Z,20.45
2022-09-23T23:44:05.697Z,18.67
2022-09-23T23:46:32.659Z,16.50
2022-09-23T23:49:00.447Z,17.48
2022-09-23T23:51:28.125Z,22.50
2022-09-23T23:53:55.944Z,17.38
2022-09-23T23:56:24.636Z,22.40
2022-09-23T23:58:56.402Z,16.25
